sensor_id;sensor_type;location;lat;lon;timestamp;P1;durP1;ratioP1;P2;durP2;ratioP2
22320;SDS011;11328;53.928;18.522;2023-01-05T00:01:49;3.70;;;2.05;;
22320;SDS011;11328;53.928;18.522;2023-01-05T00:04:16;5.43;;;2.20;;
22320;SDS011;11328;53.928;18.522;2023-01-05T00:06:43;3.85;;;2.08;;
22320;SDS011;11328;53.928;18.522;2023-01-05T00:09:11;5.93;;;2.40;;
22320;SDS011;11328;53.928;18.522;2023-01-05T00:14:29;5.90;;;2.20;;
22320;SDS011;11328;53.928;18.522;2023-01-05T00:17:18;3.50;;;2.15;;
22320;SDS011;11328;53.928;18.522;2023-01-05T00:20:09;5.82;;;2.47;;
22320;SDS011;11328;53.928;18.522;2023-01-05T00:23:05;4.97;;;2.60;;
22320;SDS011;11328;53.928;18.522;2023-01-05T00:25:36;7.25;;;2.53;;
22320;SDS011;11328;53.928;18.522;2023-01-05T00:28:06;6.03;;;2.50;;
22320;SDS011;11328;53.928;18.522;2023-01-05T00:30:36;6.50;;;2.90;;
22320;SDS011;11328;53.928;18.522;2023-01-05T00:33:09;5.95;;;2.45;;
22320;SDS011;11328;53.928;18.522;2023-01-05T00:35:42;5.82;;;2.35;;
22320;SDS011;11328;53.928;18.522;2023-01-05T00:38:09;6.90;;;2.65;;
22320;SDS011;11328;53.928;18.522;2023-01-05T00:40:36;4.88;;;2.00;;
22320;SDS011;11328;53.928;18.522;2023-01-05T00:43:03;4.38;;;1.90;;
22320;SDS011;11328;53.928;18.522;2023-01-05T00:45:30;3.78;;;1.70;;
22320;SDS011;11328;53.928;18.522;2023-01-05T00:47:57;5.13;;;2.08;;
22320;SDS011;11328;53.928;18.522;2023-01-05T00:50:25;4.28;;;1.83;;
22320;SDS011;11328;53.928;18.522;2023-01-05T00:52:52;6.30;;;2.38;;
22320;SDS011;11328;53.928;18.522;2023-01-05T00:55:19;5.82;;;1.98;;
22320;SDS011;11328;53.928;18.522;2023-01-05T00:57:45;6.82;;;1.95;;
22320;SDS011;11328;53.928;18.522;2023-01-05T01:00:13;7.32;;;2.35;;
22320;SDS011;11328;53.928;18.522;2023-01-05T01:02:44;9.88;;;2.55;;
22320;SDS011;11328;53.928;18.522;2023-01-05T01:05:12;6.20;;;2.20;;
22320;SDS011;11328;53.928;18.522;2023-01-05T01:07:39;6.53;;;2.10;;
22320;SDS011;11328;53.928;18.522;2023-01-05T01:10:06;8.95;;;2.28;;
22320;SDS011;11328;53.928;18.522;2023-01-05T01:12:34;6.15;;;2.50;;
22320;SDS011;11328;53.928;18.522;2023-01-05T01:15:01;5.55;;;2.00;;
22320;SDS011;11328;53.928;18.522;2023-01-05T01:17:30;8.35;;;2.33;;
22320;SDS011;11328;53.928;18.522;2023-01-05T01:19:57;8.55;;;2.30;;
22320;SDS011;11328;53.928;18.522;2023-01-05T01:22:24;6.93;;;2.30;;
22320;SDS011;11328;53.928;18.522;2023-01-05T01:24:51;6.03;;;2.28;;
22320;SDS011;11328;53.928;18.522;2023-01-05T01:27:18;8.07;;;2.60;;
22320;SDS011;11328;53.928;18.522;2023-01-05T01:29:45;6.85;;;2.40;;
22320;SDS011;11328;53.928;18.522;2023-01-05T01:32:12;6.93;;;2.38;;
22320;SDS011;11328;53.928;18.522;2023-01-05T01:34:38;5.68;;;2.10;;
22320;SDS011;11328;53.928;18.522;2023-01-05T01:50:03;5.88;;;2.28;;
22320;SDS011;11328;53.928;18.522;2023-01-05T01:52:39;4.97;;;2.17;;
22320;SDS011;11328;53.928;18.522;2023-01-05T01:55:12;6.97;;;2.20;;
22320;SDS011;11328;53.928;18.522;2023-01-05T01:57:39;5.15;;;2.20;;
22320;SDS011;11328;53.928;18.522;2023-01-05T02:00:09;5.00;;;2.10;;
22320;SDS011;11328;53.928;18.522;2023-01-05T02:02:40;4.65;;;1.90;;
22320;SDS011;11328;53.928;18.522;2023-01-05T02:05:07;7.43;;;2.22;;
22320;SDS011;11328;53.928;18.522;2023-01-05T02:07:38;7.15;;;1.92;;
22320;SDS011;11328;53.928;18.522;2023-01-05T02:10:11;6.60;;;2.72;;
22320;SDS011;11328;53.928;18.522;2023-01-05T02:16:00;5.78;;;2.20;;
22320;SDS011;11328;53.928;18.522;2023-01-05T02:18:55;5.00;;;1.90;;
22320;SDS011;11328;53.928;18.522;2023-01-05T02:25:34;6.25;;;2.30;;
22320;SDS011;11328;53.928;18.522;2023-01-05T02:31:29;4.28;;;1.95;;
22320;SDS011;11328;53.928;18.522;2023-01-05T02:34:08;5.88;;;2.20;;
22320;SDS011;11328;53.928;18.522;2023-01-05T02:39:16;6.88;;;2.30;;
22320;SDS011;11328;53.928;18.522;2023-01-05T02:44:35;5.68;;;2.10;;
22320;SDS011;11328;53.928;18.522;2023-01-05T02:47:06;4.32;;;2.30;;
22320;SDS011;11328;53.928;18.522;2023-01-05T02:49:54;5.38;;;2.10;;
22320;SDS011;11328;53.928;18.522;2023-01-05T02:52:28;7.00;;;2.33;;
22320;SDS011;11328;53.928;18.522;2023-01-05T02:55:07;5.82;;;2.75;;
22320;SDS011;11328;53.928;18.522;2023-01-05T02:57:42;8.65;;;2.80;;
22320;SDS011;11328;53.928;18.522;2023-01-05T03:00:25;5.18;;;2.35;;
22320;SDS011;11328;53.928;18.522;2023-01-05T03:03:01;6.32;;;2.22;;
22320;SDS011;11328;53.928;18.522;2023-01-05T03:06:16;4.18;;;2.17;;
22320;SDS011;11328;53.928;18.522;2023-01-05T03:08:59;9.53;;;2.33;;
22320;SDS011;11328;53.928;18.522;2023-01-05T03:11:40;8.52;;;2.60;;
22320;SDS011;11328;53.928;18.522;2023-01-05T03:14:45;7.63;;;2.42;;
22320;SDS011;11328;53.928;18.522;2023-01-05T03:17:35;5.38;;;2.10;;
22320;SDS011;11328;53.928;18.522;2023-01-05T03:20:10;10.18;;;2.30;;
22320;SDS011;11328;53.928;18.522;2023-01-05T03:22:41;6.70;;;2.10;;
22320;SDS011;11328;53.928;18.522;2023-01-05T03:25:32;6.10;;;2.40;;
22320;SDS011;11328;53.928;18.522;2023-01-05T03:28:23;8.20;;;2.25;;
22320;SDS011;11328;53.928;18.522;2023-01-05T03:31:21;9.23;;;2.45;;
22320;SDS011;11328;53.928;18.522;2023-01-05T03:37:16;6.95;;;2.17;;
22320;SDS011;11328;53.928;18.522;2023-01-05T03:39:50;10.63;;;2.47;;
22320;SDS011;11328;53.928;18.522;2023-01-05T03:42:18;5.70;;;1.75;;
22320;SDS011;11328;53.928;18.522;2023-01-05T03:44:45;8.90;;;1.80;;
22320;SDS011;11328;53.928;18.522;2023-01-05T03:47:15;8.68;;;1.88;;
22320;SDS011;11328;53.928;18.522;2023-01-05T03:49:41;5.63;;;1.77;;
22320;SDS011;11328;53.928;18.522;2023-01-05T03:52:08;7.53;;;1.85;;
22320;SDS011;11328;53.928;18.522;2023-01-05T03:54:35;6.05;;;1.83;;
22320;SDS011;11328;53.928;18.522;2023-01-05T03:57:02;6.60;;;1.80;;
22320;SDS011;11328;53.928;18.522;2023-01-05T03:59:29;5.45;;;1.60;;
22320;SDS011;11328;53.928;18.522;2023-01-05T04:01:56;7.13;;;1.70;;
22320;SDS011;11328;53.928;18.522;2023-01-05T04:04:23;4.70;;;1.58;;
22320;SDS011;11328;53.928;18.522;2023-01-05T04:06:50;5.47;;;1.80;;
22320;SDS011;11328;53.928;18.522;2023-01-05T04:09:17;5.30;;;1.80;;
22320;SDS011;11328;53.928;18.522;2023-01-05T04:11:44;6.18;;;2.08;;
22320;SDS011;11328;53.928;18.522;2023-01-05T04:14:11;7.38;;;2.30;;
22320;SDS011;11328;53.928;18.522;2023-01-05T04:16:37;7.13;;;2.42;;
22320;SDS011;11328;53.928;18.522;2023-01-05T04:19:05;8.30;;;2.10;;
22320;SDS011;11328;53.928;18.522;2023-01-05T04:21:31;7.25;;;2.08;;
22320;SDS011;11328;53.928;18.522;2023-01-05T04:23:58;6.50;;;2.47;;
22320;SDS011;11328;53.928;18.522;2023-01-05T04:26:25;7.90;;;2.35;;
22320;SDS011;11328;53.928;18.522;2023-01-05T04:28:52;5.38;;;2.40;;
22320;SDS011;11328;53.928;18.522;2023-01-05T04:31:19;8.73;;;2.40;;
22320;SDS011;11328;53.928;18.522;2023-01-05T04:33:46;7.47;;;2.50;;
22320;SDS011;11328;53.928;18.522;2023-01-05T04:36:13;7.63;;;2.35;;
22320;SDS011;11328;53.928;18.522;2023-01-05T04:38:39;7.57;;;2.50;;
22320;SDS011;11328;53.928;18.522;2023-01-05T04:41:06;8.45;;;2.63;;
22320;SDS011;11328;53.928;18.522;2023-01-05T04:43:33;9.40;;;2.95;;
22320;SDS011;11328;53.928;18.522;2023-01-05T04:46:00;6.70;;;2.42;;
22320;SDS011;11328;53.928;18.522;2023-01-05T04:48:27;6.95;;;2.40;;
22320;SDS011;11328;53.928;18.522;2023-01-05T04:50:54;8.45;;;2.20;;
22320;SDS011;11328;53.928;18.522;2023-01-05T04:53:21;6.10;;;2.03;;
22320;SDS011;11328;53.928;18.522;2023-01-05T04:55:50;5.68;;;2.17;;
22320;SDS011;11328;53.928;18.522;2023-01-05T04:58:18;7.30;;;2.00;;
22320;SDS011;11328;53.928;18.522;2023-01-05T05:00:46;7.70;;;2.08;;
22320;SDS011;11328;53.928;18.522;2023-01-05T05:03:14;8.38;;;2.33;;
22320;SDS011;11328;53.928;18.522;2023-01-05T05:05:42;4.05;;;1.73;;
22320;SDS011;11328;53.928;18.522;2023-01-05T05:08:09;9.32;;;2.25;;
22320;SDS011;11328;53.928;18.522;2023-01-05T05:10:35;7.35;;;2.30;;
22320;SDS011;11328;53.928;18.522;2023-01-05T05:13:03;5.82;;;2.95;;
22320;SDS011;11328;53.928;18.522;2023-01-05T05:15:30;6.93;;;2.85;;
22320;SDS011;11328;53.928;18.522;2023-01-05T05:17:56;5.50;;;1.75;;
22320;SDS011;11328;53.928;18.522;2023-01-05T05:20:26;5.30;;;1.50;;
22320;SDS011;11328;53.928;18.522;2023-01-05T05:22:53;3.72;;;1.40;;
22320;SDS011;11328;53.928;18.522;2023-01-05T05:25:20;4.93;;;0.80;;
22320;SDS011;11328;53.928;18.522;2023-01-05T05:27:47;1.77;;;0.60;;
22320;SDS011;11328;53.928;18.522;2023-01-05T05:30:14;3.75;;;1.02;;
22320;SDS011;11328;53.928;18.522;2023-01-05T05:32:41;5.50;;;1.55;;
22320;SDS011;11328;53.928;18.522;2023-01-05T05:35:09;4.82;;;2.17;;
22320;SDS011;11328;53.928;18.522;2023-01-05T05:37:36;10.70;;;3.90;;
22320;SDS011;11328;53.928;18.522;2023-01-05T05:40:03;14.35;;;5.82;;
22320;SDS011;11328;53.928;18.522;2023-01-05T05:42:31;4.80;;;1.90;;
22320;SDS011;11328;53.928;18.522;2023-01-05T05:44:58;6.32;;;1.60;;
22320;SDS011;11328;53.928;18.522;2023-01-05T05:47:25;7.47;;;1.90;;
22320;SDS011;11328;53.928;18.522;2023-01-05T05:49:52;6.90;;;1.35;;
22320;SDS011;11328;53.928;18.522;2023-01-05T05:52:19;4.70;;;1.00;;
22320;SDS011;11328;53.928;18.522;2023-01-05T05:54:46;3.33;;;1.02;;
22320;SDS011;11328;53.928;18.522;2023-01-05T05:57:13;5.35;;;1.23;;
22320;SDS011;11328;53.928;18.522;2023-01-05T05:59:40;7.35;;;1.63;;
22320;SDS011;11328;53.928;18.522;2023-01-05T06:02:07;9.73;;;1.75;;
22320;SDS011;11328;53.928;18.522;2023-01-05T06:04:34;6.30;;;2.00;;
22320;SDS011;11328;53.928;18.522;2023-01-05T06:07:01;8.45;;;2.33;;
22320;SDS011;11328;53.928;18.522;2023-01-05T06:09:27;7.88;;;1.92;;
22320;SDS011;11328;53.928;18.522;2023-01-05T06:11:54;9.40;;;2.25;;
22320;SDS011;11328;53.928;18.522;2023-01-05T06:14:21;12.18;;;2.40;;
22320;SDS011;11328;53.928;18.522;2023-01-05T06:16:48;8.38;;;1.90;;
22320;SDS011;11328;53.928;18.522;2023-01-05T06:19:15;9.90;;;2.25;;
22320;SDS011;11328;53.928;18.522;2023-01-05T06:21:42;7.95;;;2.00;;
22320;SDS011;11328;53.928;18.522;2023-01-05T06:24:09;7.65;;;1.98;;
22320;SDS011;11328;53.928;18.522;2023-01-05T06:26:36;8.35;;;1.77;;
22320;SDS011;11328;53.928;18.522;2023-01-05T06:29:02;10.23;;;2.15;;
22320;SDS011;11328;53.928;18.522;2023-01-05T06:31:29;12.30;;;2.00;;
22320;SDS011;11328;53.928;18.522;2023-01-05T06:33:56;7.80;;;1.60;;
22320;SDS011;11328;53.928;18.522;2023-01-05T06:36:23;7.25;;;1.73;;
22320;SDS011;11328;53.928;18.522;2023-01-05T06:38:50;9.88;;;1.80;;
22320;SDS011;11328;53.928;18.522;2023-01-05T06:41:17;8.70;;;1.67;;
22320;SDS011;11328;53.928;18.522;2023-01-05T06:43:44;7.53;;;1.85;;
22320;SDS011;11328;53.928;18.522;2023-01-05T06:46:11;7.78;;;1.40;;
22320;SDS011;11328;53.928;18.522;2023-01-05T06:48:38;12.20;;;2.00;;
22320;SDS011;11328;53.928;18.522;2023-01-05T06:51:05;7.93;;;1.40;;
22320;SDS011;11328;53.928;18.522;2023-01-05T06:53:32;9.57;;;1.48;;
22320;SDS011;11328;53.928;18.522;2023-01-05T06:55:58;7.18;;;1.77;;
22320;SDS011;11328;53.928;18.522;2023-01-05T06:58:25;12.45;;;3.08;;
22320;SDS011;11328;53.928;18.522;2023-01-05T07:00:52;14.52;;;4.40;;
22320;SDS011;11328;53.928;18.522;2023-01-05T07:03:20;10.05;;;3.67;;
22320;SDS011;11328;53.928;18.522;2023-01-05T07:05:48;10.43;;;2.92;;
22320;SDS011;11328;53.928;18.522;2023-01-05T07:08:17;7.05;;;1.95;;
22320;SDS011;11328;53.928;18.522;2023-01-05T07:10:44;7.90;;;1.45;;
22320;SDS011;11328;53.928;18.522;2023-01-05T07:13:10;5.20;;;1.35;;
22320;SDS011;11328;53.928;18.522;2023-01-05T07:15:40;4.35;;;1.33;;
22320;SDS011;11328;53.928;18.522;2023-01-05T07:18:07;5.30;;;1.33;;
22320;SDS011;11328;53.928;18.522;2023-01-05T07:20:34;3.83;;;0.98;;
22320;SDS011;11328;53.928;18.522;2023-01-05T07:23:01;3.90;;;1.30;;
22320;SDS011;11328;53.928;18.522;2023-01-05T07:25:28;6.88;;;2.28;;
22320;SDS011;11328;53.928;18.522;2023-01-05T07:27:56;8.75;;;3.00;;
22320;SDS011;11328;53.928;18.522;2023-01-05T07:30:24;6.68;;;2.00;;
22320;SDS011;11328;53.928;18.522;2023-01-05T07:32:51;5.95;;;1.65;;
22320;SDS011;11328;53.928;18.522;2023-01-05T07:35:18;4.65;;;1.42;;
22320;SDS011;11328;53.928;18.522;2023-01-05T07:37:44;6.05;;;1.60;;
22320;SDS011;11328;53.928;18.522;2023-01-05T07:40:11;5.13;;;1.80;;
22320;SDS011;11328;53.928;18.522;2023-01-05T07:42:41;5.28;;;1.63;;
22320;SDS011;11328;53.928;18.522;2023-01-05T07:45:08;7.85;;;2.22;;
22320;SDS011;11328;53.928;18.522;2023-01-05T07:47:37;9.65;;;3.00;;
22320;SDS011;11328;53.928;18.522;2023-01-05T07:50:05;9.32;;;3.35;;
22320;SDS011;11328;53.928;18.522;2023-01-05T07:52:32;7.70;;;2.15;;
22320;SDS011;11328;53.928;18.522;2023-01-05T07:54:59;9.38;;;2.47;;
22320;SDS011;11328;53.928;18.522;2023-01-05T07:57:26;6.28;;;2.38;;
22320;SDS011;11328;53.928;18.522;2023-01-05T07:59:53;7.13;;;2.40;;
22320;SDS011;11328;53.928;18.522;2023-01-05T08:02:20;5.55;;;1.90;;
22320;SDS011;11328;53.928;18.522;2023-01-05T08:04:49;5.25;;;1.33;;
22320;SDS011;11328;53.928;18.522;2023-01-05T08:07:16;6.35;;;1.50;;
22320;SDS011;11328;53.928;18.522;2023-01-05T08:09:43;6.15;;;1.55;;
22320;SDS011;11328;53.928;18.522;2023-01-05T08:12:29;4.70;;;1.38;;
22320;SDS011;11328;53.928;18.522;2023-01-05T08:14:58;6.70;;;1.77;;
22320;SDS011;11328;53.928;18.522;2023-01-05T08:17:25;4.82;;;1.50;;
22320;SDS011;11328;53.928;18.522;2023-01-05T08:19:52;6.55;;;1.65;;
22320;SDS011;11328;53.928;18.522;2023-01-05T08:22:19;7.72;;;1.92;;
22320;SDS011;11328;53.928;18.522;2023-01-05T08:24:45;8.60;;;2.05;;
22320;SDS011;11328;53.928;18.522;2023-01-05T08:27:12;9.02;;;2.40;;
22320;SDS011;11328;53.928;18.522;2023-01-05T08:29:39;7.75;;;2.40;;
22320;SDS011;11328;53.928;18.522;2023-01-05T08:32:06;7.88;;;2.22;;
22320;SDS011;11328;53.928;18.522;2023-01-05T08:34:34;6.60;;;1.70;;
22320;SDS011;11328;53.928;18.522;2023-01-05T08:37:01;6.20;;;2.15;;
22320;SDS011;11328;53.928;18.522;2023-01-05T08:39:27;8.20;;;2.05;;
22320;SDS011;11328;53.928;18.522;2023-01-05T08:41:54;6.93;;;2.33;;
22320;SDS011;11328;53.928;18.522;2023-01-05T08:44:27;7.25;;;2.30;;
22320;SDS011;11328;53.928;18.522;2023-01-05T08:46:54;6.15;;;1.83;;
22320;SDS011;11328;53.928;18.522;2023-01-05T08:49:23;6.22;;;2.25;;
22320;SDS011;11328;53.928;18.522;2023-01-05T08:51:50;8.25;;;1.90;;
22320;SDS011;11328;53.928;18.522;2023-01-05T08:54:17;5.57;;;2.00;;
22320;SDS011;11328;53.928;18.522;2023-01-05T08:56:43;6.72;;;1.52;;
22320;SDS011;11328;53.928;18.522;2023-01-05T08:59:11;7.38;;;1.80;;
22320;SDS011;11328;53.928;18.522;2023-01-05T09:01:39;8.43;;;1.95;;
22320;SDS011;11328;53.928;18.522;2023-01-05T09:04:06;4.38;;;1.60;;
22320;SDS011;11328;53.928;18.522;2023-01-05T09:06:33;6.05;;;1.88;;
22320;SDS011;11328;53.928;18.522;2023-01-05T09:09:01;9.50;;;3.03;;
22320;SDS011;11328;53.928;18.522;2023-01-05T09:11:28;10.32;;;3.85;;
22320;SDS011;11328;53.928;18.522;2023-01-05T09:13:56;9.95;;;3.97;;
22320;SDS011;11328;53.928;18.522;2023-01-05T09:16:26;10.50;;;4.50;;
22320;SDS011;11328;53.928;18.522;2023-01-05T09:19:16;12.63;;;4.43;;
22320;SDS011;11328;53.928;18.522;2023-01-05T09:21:43;9.00;;;2.72;;
22320;SDS011;11328;53.928;18.522;2023-01-05T09:24:10;6.68;;;2.40;;
22320;SDS011;11328;53.928;18.522;2023-01-05T09:26:38;6.82;;;2.28;;
22320;SDS011;11328;53.928;18.522;2023-01-05T09:29:07;6.60;;;1.90;;
22320;SDS011;11328;53.928;18.522;2023-01-05T09:31:34;5.88;;;1.95;;
22320;SDS011;11328;53.928;18.522;2023-01-05T09:34:01;10.00;;;3.47;;
22320;SDS011;11328;53.928;18.522;2023-01-05T09:36:29;7.55;;;2.75;;
22320;SDS011;11328;53.928;18.522;2023-01-05T09:38:57;7.80;;;2.15;;
22320;SDS011;11328;53.928;18.522;2023-01-05T09:44:30;6.10;;;2.08;;
22320;SDS011;11328;53.928;18.522;2023-01-05T09:50:06;5.93;;;1.90;;
22320;SDS011;11328;53.928;18.522;2023-01-05T09:52:47;7.93;;;2.20;;
22320;SDS011;11328;53.928;18.522;2023-01-05T09:55:16;8.48;;;2.50;;
22320;SDS011;11328;53.928;18.522;2023-01-05T09:57:53;9.02;;;2.55;;
22320;SDS011;11328;53.928;18.522;2023-01-05T10:00:31;6.63;;;2.60;;
22320;SDS011;11328;53.928;18.522;2023-01-05T10:03:05;9.00;;;2.72;;
22320;SDS011;11328;53.928;18.522;2023-01-05T10:06:00;6.40;;;2.10;;
22320;SDS011;11328;53.928;18.522;2023-01-05T10:08:33;6.82;;;2.50;;
22320;SDS011;11328;53.928;18.522;2023-01-05T10:11:42;7.00;;;2.22;;
22320;SDS011;11328;53.928;18.522;2023-01-05T10:14:27;8.13;;;2.20;;
22320;SDS011;11328;53.928;18.522;2023-01-05T10:17:18;8.48;;;2.65;;
22320;SDS011;11328;53.928;18.522;2023-01-05T10:20:12;7.82;;;2.50;;
22320;SDS011;11328;53.928;18.522;2023-01-05T10:22:54;4.40;;;1.80;;
22320;SDS011;11328;53.928;18.522;2023-01-05T10:25:33;11.27;;;1.80;;
22320;SDS011;11328;53.928;18.522;2023-01-05T10:31:00;25.88;;;2.35;;
22320;SDS011;11328;53.928;18.522;2023-01-05T10:36:29;5.63;;;1.70;;
22320;SDS011;11328;53.928;18.522;2023-01-05T10:42:37;29.48;;;4.05;;
22320;SDS011;11328;53.928;18.522;2023-01-05T10:45:12;8.43;;;2.13;;
22320;SDS011;11328;53.928;18.522;2023-01-05T10:47:41;15.63;;;2.20;;
22320;SDS011;11328;53.928;18.522;2023-01-05T10:53:22;7.30;;;1.80;;
22320;SDS011;11328;53.928;18.522;2023-01-05T10:59:04;5.53;;;1.80;;
22320;SDS011;11328;53.928;18.522;2023-01-05T11:01:37;5.68;;;1.90;;
22320;SDS011;11328;53.928;18.522;2023-01-05T11:04:12;3.63;;;1.50;;
22320;SDS011;11328;53.928;18.522;2023-01-05T11:07:03;7.43;;;2.05;;
22320;SDS011;11328;53.928;18.522;2023-01-05T11:09:32;4.35;;;1.50;;
22320;SDS011;11328;53.928;18.522;2023-01-05T11:12:10;4.82;;;1.80;;
22320;SDS011;11328;53.928;18.522;2023-01-05T11:14:48;4.35;;;1.60;;
22320;SDS011;11328;53.928;18.522;2023-01-05T11:17:25;3.40;;;1.20;;
22320;SDS011;11328;53.928;18.522;2023-01-05T11:19:55;4.90;;;1.30;;
22320;SDS011;11328;53.928;18.522;2023-01-05T11:27:56;4.55;;;1.35;;
22320;SDS011;11328;53.928;18.522;2023-01-05T11:30:34;2.00;;;1.02;;
22320;SDS011;11328;53.928;18.522;2023-01-05T11:33:10;3.65;;;1.30;;
22320;SDS011;11328;53.928;18.522;2023-01-05T11:35:50;4.47;;;1.65;;
22320;SDS011;11328;53.928;18.522;2023-01-05T11:38:24;5.63;;;1.88;;
22320;SDS011;11328;53.928;18.522;2023-01-05T11:40:54;6.18;;;2.50;;
22320;SDS011;11328;53.928;18.522;2023-01-05T11:43:25;4.13;;;1.70;;
22320;SDS011;11328;53.928;18.522;2023-01-05T11:46:01;4.68;;;2.30;;
22320;SDS011;11328;53.928;18.522;2023-01-05T11:48:31;6.50;;;2.60;;
22320;SDS011;11328;53.928;18.522;2023-01-05T11:51:01;4.80;;;1.83;;
22320;SDS011;11328;53.928;18.522;2023-01-05T11:58:50;6.85;;;2.50;;
22320;SDS011;11328;53.928;18.522;2023-01-05T12:07:29;7.78;;;3.20;;
22320;SDS011;11328;53.928;18.522;2023-01-05T12:15:52;2.90;;;1.35;;
22320;SDS011;11328;53.928;18.522;2023-01-05T12:18:58;5.32;;;2.00;;
22320;SDS011;11328;53.928;18.522;2023-01-05T12:22:17;4.97;;;1.90;;
22320;SDS011;11328;53.928;18.522;2023-01-05T12:34:32;6.97;;;2.13;;
22320;SDS011;11328;53.928;18.522;2023-01-05T12:40:12;4.32;;;1.85;;
22320;SDS011;11328;53.928;18.522;2023-01-05T12:43:03;5.47;;;1.75;;
22320;SDS011;11328;53.928;18.522;2023-01-05T12:45:52;3.83;;;1.27;;
22320;SDS011;11328;53.928;18.522;2023-01-05T12:49:08;4.13;;;2.13;;
22320;SDS011;11328;53.928;18.522;2023-01-05T12:51:47;8.07;;;2.13;;
22320;SDS011;11328;53.928;18.522;2023-01-05T12:57:25;7.65;;;2.20;;
22320;SDS011;11328;53.928;18.522;2023-01-05T13:00:11;6.82;;;2.08;;
22320;SDS011;11328;53.928;18.522;2023-01-05T13:02:48;5.55;;;1.92;;
22320;SDS011;11328;53.928;18.522;2023-01-05T13:05:32;5.13;;;1.75;;
22320;SDS011;11328;53.928;18.522;2023-01-05T13:13:43;7.10;;;2.10;;
22320;SDS011;11328;53.928;18.522;2023-01-05T13:16:18;6.00;;;2.35;;
22320;SDS011;11328;53.928;18.522;2023-01-05T13:18:54;6.07;;;2.28;;
22320;SDS011;11328;53.928;18.522;2023-01-05T13:21:33;6.18;;;2.05;;
22320;SDS011;11328;53.928;18.522;2023-01-05T13:24:08;5.55;;;1.90;;
22320;SDS011;11328;53.928;18.522;2023-01-05T13:26:58;4.55;;;1.90;;
22320;SDS011;11328;53.928;18.522;2023-01-05T13:29:32;6.85;;;2.45;;
22320;SDS011;11328;53.928;18.522;2023-01-05T13:50:06;4.57;;;1.95;;
22320;SDS011;11328;53.928;18.522;2023-01-05T13:55:39;5.30;;;2.30;;
22320;SDS011;11328;53.928;18.522;2023-01-05T14:01:18;5.50;;;2.60;;
22320;SDS011;11328;53.928;18.522;2023-01-05T14:04:03;4.00;;;2.22;;
22320;SDS011;11328;53.928;18.522;2023-01-05T14:06:43;6.38;;;3.00;;
22320;SDS011;11328;53.928;18.522;2023-01-05T14:09:30;10.45;;;3.63;;
22320;SDS011;11328;53.928;18.522;2023-01-05T14:26:01;7.45;;;2.55;;
22320;SDS011;11328;53.928;18.522;2023-01-05T14:28:39;6.22;;;2.45;;
22320;SDS011;11328;53.928;18.522;2023-01-05T14:36:36;5.43;;;2.13;;
22320;SDS011;11328;53.928;18.522;2023-01-05T14:39:48;4.20;;;1.92;;
22320;SDS011;11328;53.928;18.522;2023-01-05T14:42:35;4.32;;;1.80;;
22320;SDS011;11328;53.928;18.522;2023-01-05T14:45:06;5.53;;;1.85;;
22320;SDS011;11328;53.928;18.522;2023-01-05T14:47:47;2.80;;;1.38;;
22320;SDS011;11328;53.928;18.522;2023-01-05T14:52:58;4.28;;;1.80;;
22320;SDS011;11328;53.928;18.522;2023-01-05T14:58:09;3.40;;;1.70;;
22320;SDS011;11328;53.928;18.522;2023-01-05T15:00:53;4.10;;;2.00;;
22320;SDS011;11328;53.928;18.522;2023-01-05T15:06:05;5.63;;;2.60;;
22320;SDS011;11328;53.928;18.522;2023-01-05T15:18:00;5.18;;;2.67;;
22320;SDS011;11328;53.928;18.522;2023-01-05T15:21:03;7.35;;;3.30;;
22320;SDS011;11328;53.928;18.522;2023-01-05T15:33:13;6.38;;;2.90;;
22320;SDS011;11328;53.928;18.522;2023-01-05T15:35:54;7.70;;;2.80;;
22320;SDS011;11328;53.928;18.522;2023-01-05T15:38:29;8.35;;;3.35;;
22320;SDS011;11328;53.928;18.522;2023-01-05T15:41:09;6.82;;;3.22;;
22320;SDS011;11328;53.928;18.522;2023-01-05T15:43:39;7.10;;;2.80;;
22320;SDS011;11328;53.928;18.522;2023-01-05T15:46:10;8.35;;;3.58;;
22320;SDS011;11328;53.928;18.522;2023-01-05T15:48:42;8.18;;;3.15;;
22320;SDS011;11328;53.928;18.522;2023-01-05T15:51:22;7.00;;;3.00;;
22320;SDS011;11328;53.928;18.522;2023-01-05T15:53:59;8.90;;;2.78;;
22320;SDS011;11328;53.928;18.522;2023-01-05T15:56:34;11.95;;;6.85;;
22320;SDS011;11328;53.928;18.522;2023-01-05T16:01:51;6.88;;;3.20;;
22320;SDS011;11328;53.928;18.522;2023-01-05T16:04:19;8.13;;;3.22;;
22320;SDS011;11328;53.928;18.522;2023-01-05T16:06:46;8.70;;;3.42;;
22320;SDS011;11328;53.928;18.522;2023-01-05T16:09:25;14.65;;;3.97;;
22320;SDS011;11328;53.928;18.522;2023-01-05T16:11:57;9.63;;;3.42;;
22320;SDS011;11328;53.928;18.522;2023-01-05T16:14:40;9.93;;;3.95;;
22320;SDS011;11328;53.928;18.522;2023-01-05T16:19:51;10.00;;;3.55;;
22320;SDS011;11328;53.928;18.522;2023-01-05T16:22:32;12.20;;;4.82;;
22320;SDS011;11328;53.928;18.522;2023-01-05T16:25:18;10.65;;;4.43;;
22320;SDS011;11328;53.928;18.522;2023-01-05T16:27:49;12.18;;;4.72;;
22320;SDS011;11328;53.928;18.522;2023-01-05T16:30:35;11.25;;;5.05;;
22320;SDS011;11328;53.928;18.522;2023-01-05T16:36:07;11.75;;;4.47;;
22320;SDS011;11328;53.928;18.522;2023-01-05T16:38:45;9.43;;;4.32;;
22320;SDS011;11328;53.928;18.522;2023-01-05T16:41:20;10.30;;;4.30;;
22320;SDS011;11328;53.928;18.522;2023-01-05T16:43:55;9.45;;;3.95;;
22320;SDS011;11328;53.928;18.522;2023-01-05T16:51:45;8.30;;;4.30;;
22320;SDS011;11328;53.928;18.522;2023-01-05T16:56:53;9.20;;;4.20;;
22320;SDS011;11328;53.928;18.522;2023-01-05T17:05:12;10.65;;;4.50;;
22320;SDS011;11328;53.928;18.522;2023-01-05T17:07:43;11.65;;;4.95;;
22320;SDS011;11328;53.928;18.522;2023-01-05T17:10:17;9.57;;;4.55;;
22320;SDS011;11328;53.928;18.522;2023-01-05T17:12:51;13.55;;;6.43;;
22320;SDS011;11328;53.928;18.522;2023-01-05T17:15:24;12.82;;;6.60;;
22320;SDS011;11328;53.928;18.522;2023-01-05T17:17:56;11.25;;;5.72;;
22320;SDS011;11328;53.928;18.522;2023-01-05T17:20:25;15.65;;;7.28;;
22320;SDS011;11328;53.928;18.522;2023-01-05T17:23:07;9.35;;;4.85;;
22320;SDS011;11328;53.928;18.522;2023-01-05T17:25:50;16.90;;;8.27;;
22320;SDS011;11328;53.928;18.522;2023-01-05T17:28:19;14.63;;;7.88;;
22320;SDS011;11328;53.928;18.522;2023-01-05T17:30:50;16.23;;;8.52;;
22320;SDS011;11328;53.928;18.522;2023-01-05T17:33:18;19.67;;;11.00;;
22320;SDS011;11328;53.928;18.522;2023-01-05T17:35:45;15.13;;;7.13;;
22320;SDS011;11328;53.928;18.522;2023-01-05T17:38:18;9.70;;;5.50;;
22320;SDS011;11328;53.928;18.522;2023-01-05T17:40:45;28.00;;;12.63;;
22320;SDS011;11328;53.928;18.522;2023-01-05T17:43:13;13.65;;;7.10;;
22320;SDS011;11328;53.928;18.522;2023-01-05T17:45:41;12.98;;;6.68;;
22320;SDS011;11328;53.928;18.522;2023-01-05T17:48:09;21.08;;;10.10;;
22320;SDS011;11328;53.928;18.522;2023-01-05T17:50:42;24.85;;;11.05;;
22320;SDS011;11328;53.928;18.522;2023-01-05T17:53:10;12.75;;;5.70;;
22320;SDS011;11328;53.928;18.522;2023-01-05T17:55:37;10.90;;;5.13;;
22320;SDS011;11328;53.928;18.522;2023-01-05T17:58:04;13.07;;;6.00;;
22320;SDS011;11328;53.928;18.522;2023-01-05T18:00:32;11.18;;;4.60;;
22320;SDS011;11328;53.928;18.522;2023-01-05T18:03:04;11.40;;;5.03;;
22320;SDS011;11328;53.928;18.522;2023-01-05T18:05:31;10.38;;;5.28;;
22320;SDS011;11328;53.928;18.522;2023-01-05T18:07:58;21.52;;;10.25;;
22320;SDS011;11328;53.928;18.522;2023-01-05T18:10:25;12.88;;;6.32;;
22320;SDS011;11328;53.928;18.522;2023-01-05T18:12:54;20.88;;;9.77;;
22320;SDS011;11328;53.928;18.522;2023-01-05T18:15:21;15.88;;;7.70;;
22320;SDS011;11328;53.928;18.522;2023-01-05T18:17:48;17.75;;;7.03;;